createdAt,value
2022-11-26T00:00:03.159Z,23.80
2022-11-26T00:02:33.316Z,23.80
2022-11-26T00:05:02.322Z,23.80
2022-11-26T00:07:32.351Z,23.70
2022-11-26T00:10:02.010Z,23.70
2022-11-26T00:12:35.032Z,23.70
2022-11-26T00:15:17.446Z,23.70
2022-11-26T00:17:46.430Z,23.70
2022-11-26T00:20:16.327Z,23.70
2022-11-26T00:22:52.108Z,23.70
2022-11-26T00:25:27.048Z,23.70
2022-11-26T00:27:59.144Z,23.80
2022-11-26T00:30:29.210Z,23.80
2022-11-26T00:32:59.405Z,23.80
2022-11-26T00:35:28.564Z,23.80
2022-11-26T00:37:58.906Z,23.90
2022-11-26T00:40:32.744Z,23.90
2022-11-26T00:43:02.224Z,23.90
2022-11-26T00:45:32.587Z,24.00
2022-11-26T00:48:03.015Z,24.00
2022-11-26T00:50:45.018Z,23.90
2022-11-26T00:53:19.305Z,24.00
2022-11-26T00:55:50.541Z,24.00
2022-11-26T00:58:38.306Z,24.00
2022-11-26T01:01:07.354Z,24.00
2022-11-26T01:03:36.351Z,24.00
2022-11-26T01:06:05.266Z,24.10
2022-11-26T01:08:36.972Z,24.00
2022-11-26T01:11:07.178Z,24.00
2022-11-26T01:13:36.060Z,24.00
2022-11-26T01:16:17.389Z,24.00
2022-11-26T01:18:46.760Z,24.10
2022-11-26T01:21:16.103Z,24.00
2022-11-26T01:23:45.095Z,24.00
2022-11-26T01:26:24.898Z,24.10
2022-11-26T01:28:54.200Z,24.10
2022-11-26T01:31:28.686Z,24.10
2022-11-26T01:33:58.031Z,24.20
2022-11-26T01:36:41.658Z,24.20
2022-11-26T01:39:21.972Z,24.20
2022-11-26T01:42:27.059Z,24.30
2022-11-26T01:44:56.056Z,24.30
2022-11-26T01:47:30.294Z,24.40
2022-11-26T01:50:30.091Z,24.50
2022-11-26T01:53:37.340Z,24.50
2022-11-26T01:56:18.182Z,24.60
2022-11-26T01:58:58.090Z,24.70
2022-11-26T02:01:27.161Z,24.80
2022-11-26T02:04:00.638Z,24.80
2022-11-26T02:06:34.849Z,24.90
2022-11-26T02:09:07.156Z,25.00
2022-11-26T02:11:36.917Z,25.10
2022-11-26T02:14:22.342Z,25.20
2022-11-26T02:16:54.379Z,25.30
2022-11-26T02:19:49.929Z,25.40
2022-11-26T02:22:55.781Z,25.50
2022-11-26T02:25:30.979Z,25.60
2022-11-26T02:28:02.942Z,25.60
2022-11-26T02:30:38.206Z,25.70
2022-11-26T02:33:19.500Z,25.80
2022-11-26T02:36:02.962Z,25.90
2022-11-26T02:38:34.028Z,26.00
2022-11-26T02:41:03.418Z,26.00
2022-11-26T02:43:35.331Z,26.10
2022-11-26T02:46:09.085Z,26.10
2022-11-26T02:48:44.527Z,26.20
2022-11-26T02:51:24.231Z,26.30
2022-11-26T02:53:55.116Z,26.30
2022-11-26T02:56:28.873Z,26.30
2022-11-26T02:58:59.287Z,26.40
2022-11-26T03:01:39.588Z,26.40
2022-11-26T03:04:19.154Z,26.50
2022-11-26T03:06:49.374Z,26.50
2022-11-26T03:09:19.772Z,26.50
2022-11-26T03:11:49.299Z,26.60
2022-11-26T03:14:18.694Z,26.70
2022-11-26T03:16:48.062Z,26.70
2022-11-26T03:19:21.312Z,26.80
2022-11-26T03:21:50.951Z,26.90
2022-11-26T03:24:20.593Z,26.90
2022-11-26T03:26:50.123Z,27.00
2022-11-26T03:29:19.399Z,27.10
2022-11-26T03:31:48.544Z,27.10
2022-11-26T03:34:17.832Z,27.20
2022-11-26T03:36:47.073Z,27.20
2022-11-26T03:39:16.422Z,27.30
2022-11-26T03:41:45.542Z,27.40
2022-11-26T03:44:14.924Z,27.40
2022-11-26T03:46:44.218Z,27.60
2022-11-26T03:49:13.394Z,27.60
2022-11-26T03:51:42.476Z,27.70
2022-11-26T03:54:11.612Z,27.70
2022-11-26T03:56:40.912Z,27.80
2022-11-26T03:59:10.083Z,27.90
2022-11-26T04:01:39.489Z,28.00
2022-11-26T04:04:08.480Z,28.10
2022-11-26T04:06:37.617Z,28.20
2022-11-26T04:09:06.723Z,28.40
2022-11-26T04:11:35.776Z,28.50
2022-11-26T04:14:05.040Z,28.80
2022-11-26T04:16:34.105Z,28.90
2022-11-26T04:19:03.214Z,29.10
2022-11-26T04:21:32.291Z,29.20
2022-11-26T04:24:01.425Z,29.40
2022-11-26T04:26:30.809Z,29.40
2022-11-26T04:28:59.858Z,29.60
2022-11-26T04:31:29.071Z,29.70
2022-11-26T04:33:58.184Z,29.70
2022-11-26T04:36:27.260Z,29.80
2022-11-26T04:38:56.545Z,29.80
2022-11-26T04:41:25.737Z,29.80
2022-11-26T04:43:54.797Z,29.90
2022-11-26T04:46:23.861Z,29.90
2022-11-26T04:48:53.094Z,29.90
2022-11-26T04:51:22.279Z,29.90
2022-11-26T04:53:55.484Z,29.90
2022-11-26T04:56:25.280Z,29.90
2022-11-26T04:58:54.298Z,30.00
2022-11-26T05:01:23.409Z,30.00
2022-11-26T05:03:52.476Z,30.10
2022-11-26T05:06:21.628Z,30.10
2022-11-26T05:08:51.080Z,30.10
2022-11-26T05:11:20.448Z,30.20
2022-11-26T05:13:49.496Z,30.30
2022-11-26T05:16:18.674Z,30.40
2022-11-26T05:18:47.826Z,30.50
2022-11-26T05:21:16.911Z,30.60
2022-11-26T05:23:45.971Z,30.60
2022-11-26T05:26:15.065Z,30.60
2022-11-26T05:28:44.703Z,30.60
2022-11-26T05:31:14.019Z,30.60
2022-11-26T05:33:43.075Z,30.60
2022-11-26T05:36:12.413Z,30.70
2022-11-26T05:38:41.436Z,30.70
2022-11-26T05:41:10.481Z,30.80
2022-11-26T05:43:39.552Z,30.80
2022-11-26T05:46:10.710Z,30.80
2022-11-26T05:48:39.731Z,30.90
2022-11-26T05:51:08.896Z,31.00
2022-11-26T05:53:37.889Z,31.00
2022-11-26T05:56:07.273Z,31.10
2022-11-26T05:58:36.399Z,31.10
2022-11-26T06:01:10.574Z,31.20
2022-11-26T06:03:40.003Z,31.20
2022-11-26T06:06:09.614Z,31.30
2022-11-26T06:08:39.718Z,31.30
2022-11-26T06:11:08.793Z,31.40
2022-11-26T06:13:37.887Z,31.40
2022-11-26T06:16:07.304Z,31.50
2022-11-26T06:18:38.254Z,31.60
2022-11-26T06:21:08.826Z,31.70
2022-11-26T06:23:37.911Z,31.80
2022-11-26T06:26:12.728Z,31.90
2022-11-26T06:28:41.898Z,32.00
2022-11-26T06:31:11.809Z,32.10
2022-11-26T06:33:40.914Z,32.10
2022-11-26T06:36:11.343Z,32.10
2022-11-26T06:38:40.397Z,32.10
2022-11-26T06:41:10.635Z,32.20
2022-11-26T06:43:39.685Z,32.30
2022-11-26T06:46:12.722Z,32.30
2022-11-26T06:48:42.147Z,32.30
2022-11-26T06:51:14.847Z,32.40
2022-11-26T06:53:44.051Z,32.50
2022-11-26T06:56:18.737Z,32.60
2022-11-26T06:58:50.222Z,32.60
2022-11-26T07:01:25.331Z,32.60
2022-11-26T07:03:54.945Z,32.70
2022-11-26T07:06:32.372Z,32.70
2022-11-26T07:09:06.613Z,32.80
2022-11-26T07:11:36.468Z,32.90
2022-11-26T07:14:05.652Z,32.90
2022-11-26T07:16:35.173Z,33.00
2022-11-26T07:19:04.577Z,33.10
2022-11-26T07:21:33.893Z,33.20
2022-11-26T07:24:02.839Z,33.20
2022-11-26T07:26:31.928Z,33.30
2022-11-26T07:29:00.854Z,33.40
2022-11-26T07:31:29.837Z,33.50
2022-11-26T07:33:59.368Z,33.60
2022-11-26T07:36:30.532Z,33.70
2022-11-26T07:39:02.208Z,33.70
2022-11-26T07:41:31.896Z,33.70
2022-11-26T07:44:00.778Z,33.70
2022-11-26T07:46:29.866Z,33.70
2022-11-26T07:48:59.109Z,33.80
2022-11-26T07:51:31.126Z,33.80
2022-11-26T07:54:05.823Z,33.80
2022-11-26T07:56:35.224Z,33.80
2022-11-26T07:59:04.311Z,33.80
2022-11-26T08:01:33.983Z,33.80
2022-11-26T08:04:06.758Z,33.80
2022-11-26T08:06:35.924Z,33.80
2022-11-26T08:09:05.731Z,33.70
2022-11-26T08:11:35.950Z,33.70
2022-11-26T08:14:07.666Z,33.60
2022-11-26T08:16:37.046Z,33.50
2022-11-26T08:19:09.316Z,33.40
2022-11-26T08:21:39.510Z,33.50
2022-11-26T08:24:13.280Z,33.50
2022-11-26T08:26:44.337Z,33.50
2022-11-26T08:29:14.810Z,33.50
2022-11-26T08:31:46.350Z,33.60
2022-11-26T08:34:17.911Z,33.50
2022-11-26T08:36:47.610Z,33.50
2022-11-26T08:39:18.571Z,33.40
2022-11-26T08:41:51.933Z,33.30
2022-11-26T08:44:22.197Z,33.20
2022-11-26T08:46:51.253Z,33.10
2022-11-26T08:49:20.245Z,33.00
2022-11-26T08:51:49.162Z,32.90
2022-11-26T08:54:18.375Z,32.80
2022-11-26T08:56:47.546Z,32.70
2022-11-26T08:59:17.396Z,32.60
2022-11-26T09:01:46.941Z,32.60
2022-11-26T09:04:15.950Z,32.50
2022-11-26T09:06:45.060Z,32.40
2022-11-26T09:09:14.239Z,32.20
2022-11-26T09:11:47.925Z,32.10
2022-11-26T09:14:18.938Z,32.00
2022-11-26T09:16:49.061Z,31.90
2022-11-26T09:19:19.029Z,31.90
2022-11-26T09:21:48.301Z,31.80
2022-11-26T09:24:18.795Z,31.70
2022-11-26T09:26:49.445Z,31.50
2022-11-26T09:29:21.271Z,31.40
2022-11-26T09:34:41.320Z,31.30
2022-11-26T09:37:10.527Z,31.10
2022-11-26T09:39:39.421Z,31.10
2022-11-26T09:42:52.766Z,31.00
2022-11-26T09:45:45.281Z,30.90
2022-11-26T09:48:19.421Z,30.80
2022-11-26T09:50:49.355Z,30.80
2022-11-26T09:53:22.841Z,30.80
2022-11-26T09:55:54.783Z,30.70
2022-11-26T09:58:43.863Z,30.60
2022-11-26T10:01:19.968Z,30.60
2022-11-26T10:03:49.084Z,30.50
2022-11-26T10:06:42.410Z,30.50
2022-11-26T10:09:38.653Z,30.40
2022-11-26T10:13:03.427Z,30.30
2022-11-26T10:15:59.718Z,30.20
2022-11-26T10:19:05.548Z,30.20
2022-11-26T10:22:01.103Z,30.10
2022-11-26T10:24:42.880Z,30.00
2022-11-26T10:27:17.249Z,30.00
2022-11-26T10:29:51.281Z,29.90
2022-11-26T10:32:32.183Z,29.90
2022-11-26T10:35:01.504Z,29.80
2022-11-26T10:37:31.313Z,29.70
2022-11-26T10:40:31.900Z,29.70
2022-11-26T10:43:09.861Z,29.60
2022-11-26T10:45:51.033Z,29.50
2022-11-26T10:48:29.315Z,29.50
2022-11-26T10:51:23.684Z,29.50
2022-11-26T10:54:06.747Z,29.40
2022-11-26T10:56:43.471Z,29.40
2022-11-26T10:59:32.604Z,29.30
2022-11-26T11:02:26.069Z,29.30
2022-11-26T11:04:57.792Z,29.30
2022-11-26T11:07:45.277Z,29.30
2022-11-26T11:10:14.323Z,29.30
2022-11-26T11:13:15.818Z,29.30
2022-11-26T11:15:45.441Z,29.30
2022-11-26T11:18:14.670Z,29.30
2022-11-26T11:20:52.506Z,29.30
2022-11-26T11:23:52.124Z,29.30
2022-11-26T11:26:24.825Z,29.30
2022-11-26T11:28:56.404Z,29.20
2022-11-26T11:31:28.375Z,29.20
2022-11-26T11:34:22.771Z,29.10
2022-11-26T11:37:01.903Z,29.10
2022-11-26T11:39:33.263Z,29.10
2022-11-26T11:42:05.820Z,29.00
2022-11-26T11:44:47.457Z,29.00
2022-11-26T11:47:43.351Z,28.90
2022-11-26T11:50:21.195Z,28.90
2022-11-26T11:53:08.649Z,28.80
2022-11-26T11:56:03.716Z,28.80
2022-11-26T11:58:57.223Z,28.80
2022-11-26T12:01:43.603Z,28.70
2022-11-26T12:04:46.335Z,28.70
2022-11-26T12:07:36.616Z,28.70
2022-11-26T12:10:35.742Z,28.70
2022-11-26T12:13:08.855Z,28.70
2022-11-26T12:15:48.854Z,28.70
2022-11-26T12:18:32.710Z,28.60
2022-11-26T12:21:12.986Z,28.60
2022-11-26T12:24:19.434Z,28.50
2022-11-26T12:27:04.810Z,28.50
2022-11-26T12:29:49.481Z,28.40
2022-11-26T12:33:01.857Z,28.30
2022-11-26T12:35:37.287Z,28.30
2022-11-26T12:38:37.538Z,28.30
2022-11-26T12:41:21.657Z,28.20
2022-11-26T12:43:59.950Z,28.20
2022-11-26T12:46:41.029Z,28.10
2022-11-26T12:49:15.871Z,28.10
2022-11-26T12:52:03.347Z,28.00
2022-11-26T12:55:00.358Z,28.00
2022-11-26T12:57:34.687Z,27.90
2022-11-26T13:00:14.147Z,27.80
2022-11-26T13:02:45.697Z,27.80
2022-11-26T13:05:26.008Z,27.80
2022-11-26T13:08:18.365Z,27.80
2022-11-26T13:11:05.933Z,27.70
2022-11-26T13:13:59.559Z,27.70
2022-11-26T13:16:41.216Z,27.60
2022-11-26T13:19:28.414Z,27.60
2022-11-26T13:22:06.281Z,27.60
2022-11-26T13:24:44.352Z,27.50
2022-11-26T13:27:16.399Z,27.50
2022-11-26T13:30:03.765Z,27.50
2022-11-26T13:33:23.276Z,27.50
2022-11-26T13:36:28.896Z,27.40
2022-11-26T13:38:57.773Z,27.40
2022-11-26T13:41:45.601Z,27.40
2022-11-26T13:44:37.425Z,27.40
2022-11-26T13:47:14.398Z,27.30
2022-11-26T13:50:01.901Z,27.30
2022-11-26T13:52:41.061Z,27.30
2022-11-26T13:55:19.061Z,27.30
2022-11-26T13:57:56.924Z,27.30
2022-11-26T14:00:31.928Z,27.20
2022-11-26T14:03:02.720Z,27.20
2022-11-26T14:05:53.121Z,27.20
2022-11-26T14:08:44.468Z,27.20
2022-11-26T14:11:34.394Z,27.20
2022-11-26T14:14:29.263Z,27.20
2022-11-26T14:17:04.493Z,27.10
2022-11-26T14:19:42.704Z,27.10
2022-11-26T14:22:33.175Z,27.10
2022-11-26T14:25:05.678Z,27.10
2022-11-26T14:27:37.331Z,27.10
2022-11-26T14:30:09.644Z,27.10
2022-11-26T14:32:41.271Z,27.00
2022-11-26T14:35:22.810Z,27.00
2022-11-26T14:37:56.974Z,27.10
2022-11-26T14:40:31.796Z,27.10
2022-11-26T14:43:21.269Z,27.10
2022-11-26T14:46:03.027Z,27.00
2022-11-26T14:48:34.237Z,27.00
2022-11-26T14:51:05.733Z,27.00
2022-11-26T14:53:36.134Z,27.00
2022-11-26T14:56:06.655Z,27.00
2022-11-26T14:58:41.375Z,27.00
2022-11-26T15:01:24.405Z,27.00
2022-11-26T15:04:07.490Z,27.00
2022-11-26T15:06:43.671Z,27.00
2022-11-26T15:09:25.700Z,27.00
2022-11-26T15:12:13.621Z,27.00
2022-11-26T15:14:55.013Z,26.90
2022-11-26T15:17:29.541Z,26.90
2022-11-26T15:20:02.995Z,26.90
2022-11-26T15:22:58.127Z,26.90
2022-11-26T15:25:36.413Z,26.90
2022-11-26T15:28:06.571Z,26.90
2022-11-26T15:30:39.772Z,26.90
2022-11-26T15:33:14.463Z,26.90
2022-11-26T15:35:44.872Z,26.80
2022-11-26T15:38:19.444Z,26.80
2022-11-26T15:40:51.880Z,26.80
2022-11-26T15:43:37.726Z,26.80
2022-11-26T15:46:22.145Z,26.80
2022-11-26T15:48:56.512Z,26.80
2022-11-26T15:51:33.676Z,26.70
2022-11-26T15:54:09.308Z,26.70
2022-11-26T15:56:40.807Z,26.80
2022-11-26T15:59:16.971Z,26.80
2022-11-26T16:01:48.235Z,26.80
2022-11-26T16:04:35.423Z,26.80
2022-11-26T16:07:15.050Z,26.80
2022-11-26T16:09:45.126Z,26.60
2022-11-26T16:12:34.921Z,26.30
2022-11-26T16:15:27.439Z,26.00
2022-11-26T16:17:56.396Z,25.80
2022-11-26T16:20:30.970Z,25.60
2022-11-26T16:23:02.253Z,25.50
2022-11-26T16:25:39.224Z,25.40
2022-11-26T16:28:14.419Z,25.40
2022-11-26T16:30:45.852Z,25.30
2022-11-26T16:33:14.857Z,25.30
2022-11-26T16:35:45.834Z,25.20
2022-11-26T16:38:24.059Z,25.10
2022-11-26T16:40:53.711Z,25.10
2022-11-26T16:43:22.836Z,25.10
2022-11-26T16:45:55.575Z,25.00
2022-11-26T16:48:27.436Z,25.00
2022-11-26T16:50:57.690Z,25.00
2022-11-26T16:53:26.559Z,24.90
2022-11-26T16:55:55.811Z,24.90
2022-11-26T16:58:37.472Z,24.80
2022-11-26T17:01:06.390Z,24.90
2022-11-26T17:03:35.374Z,24.80
2022-11-26T17:06:12.510Z,24.80
2022-11-26T17:08:45.060Z,24.80
2022-11-26T17:11:16.997Z,24.70
2022-11-26T17:13:45.951Z,24.70
2022-11-26T17:16:20.661Z,24.60
2022-11-26T17:18:51.059Z,24.60
2022-11-26T17:21:19.971Z,24.60
